首页
METAR-TAF:

METAR-TAF

机场 :

Manistee County-Blacker Airport

Manistee, 密歇根州, 美国

纬度: 44-16N, 经度: 086-15W, 海拔: 189米

当前天气观测

该预报发布于35分钟前的21:13 UTC
风速14节,风向西
温度 -1°C
湿度 93%
气压 1004 hPa
能見度: 2.8公里
阴天层高于900英尺
未知, 轻雾

METAR: KMBL 142113Z AUTO 27014KT 1 3/4SM UP BR OVC009 M01/M02 A2964 RMK AO2 CIG 007V011 P0000 FZRANO

时间: 16:48 (21:48 UTC)

预报

该预报发布于28分钟前的21:20 UTC
预报有效从14日的 21点(UTC)到 15日的 18点(UTC)
风速5节,风向西转西北
能見度: 6.4公里
阴天层高于1200英尺
(小) 冻, 毛毛雨, 雪, 轻雾
短暂存在
从 14日的 21点(UTC)到 14日的 23点(UTC)
能見度: 1.6公里
阴天层高于900英尺
(小) 冻, 毛毛雨, 雪, 轻雾
从 14日的 2300点(UTC)
风速11节,风向西转西北,有时为19节阵风
能見度: 6.4公里
阴天层高于900英尺
小雪, 轻雾
从 15日的 0200点(UTC)
风速11节,风向北转西北,有时为22节阵风
能見度: 9.7公里
阴天层高于1400英尺
小阵雪
从 15日的 0600点(UTC)
风速12节,风向北转西北,有时为24节阵风
能見度: 10公里
阴天层高于1900英尺
附近有阵雨
从 15日的 1200点(UTC)
风速12节,风向西北,有时为22节阵风
能見度: 10公里
阴天层高于2700英尺

TAF: KMBL 142120Z 1421/1518 30005KT 4SM -FZDZSN BR OVC012 TEMPO 1421/1423 1SM -FZDZSN BR OVC009 FM142300 30011G19KT 4SM -SN BR OVC009 FM150200 33011G22KT 6SM -SHSN OVC014 FM150600 33012G24KT P6SM VCSH OVC019 FM151200 32012G22KT P6SM OVC027

超过4000个机场的气象观测和天气预报(METAR&TAF报告)。

可查询的气象台以黄色和红色小点在地图上表示。

将鼠标移到小点上方,可查看气象台名称。

然后点击查看天气观测和预报。

如需切换地图:点击带黑十字的绿色按钮放大地图;点击带横线的绿色按钮缩小地图;或者点击绿色箭头查看邻近地区的地图。


METAR-TAF: